Time;durP1;ratioP1;P1;durP2;ratioP2;P2;SDS_P1;SDS_P2;PMS_P1;PMS_P2;Temp;Humidity;BMP_temperature;BMP_pressure;BME280_temperature;BME280_humidity;BME280_pressure;Samples;Min_cycle;Max_cycle;Signal;HPM_P1;HPM_P2
2022/06/26 00:01:22;;;;;;;28.65;14.55;;;;;;;15.66;100.00;101263.50;5225323;28;20020;-72
2022/06/26 00:03:52;;;;;;;21.65;12.10;;;;;;;15.65;100.00;101272.66;5212079;28;20024;-73
2022/06/26 00:06:23;;;;;;;27.55;13.35;;;;;;;15.62;100.00;101276.56;5216612;28;20048;-71
2022/06/26 00:08:53;;;;;;;23.65;13.57;;;;;;;15.61;100.00;101279.44;5204625;28;20021;-72
2022/06/26 00:11:24;;;;;;;27.88;12.52;;;;;;;15.59;100.00;101281.50;5214929;28;20390;-72
2022/06/26 00:13:54;;;;;;;20.48;11.30;;;;;;;15.57;100.00;101283.56;5207726;28;20029;-71
2022/06/26 00:16:25;;;;;;;23.33;11.32;;;;;;;15.51;100.00;101290.53;5215681;28;20029;-72
2022/06/26 00:18:56;;;;;;;19.98;11.73;;;;;;;15.47;100.00;101292.78;5225060;28;20039;-72
2022/06/26 00:21:26;;;;;;;17.48;10.45;;;;;;;15.43;100.00;101290.66;5218457;28;20037;-71
2022/06/26 00:23:57;;;;;;;22.52;9.73;;;;;;;15.41;100.00;101284.56;5210811;28;20031;-73
2022/06/26 00:26:27;;;;;;;28.80;11.15;;;;;;;15.38;100.00;101285.81;5224080;28;20025;-72
2022/06/26 00:28:58;;;;;;;20.60;9.65;;;;;;;15.36;100.00;101290.56;5213695;28;20033;-72
2022/06/26 00:31:28;;;;;;;21.10;9.90;;;;;;;15.27;100.00;101289.81;5219705;28;20036;-71
2022/06/26 00:33:59;;;;;;;17.60;8.52;;;;;;;15.14;100.00;101284.22;5224818;28;20176;-71
2022/06/26 00:36:30;;;;;;;23.42;9.18;;;;;;;15.07;100.00;101288.69;5210735;28;20052;-72
2022/06/26 00:39:00;;;;;;;22.42;8.98;;;;;;;14.99;100.00;101295.00;5214116;28;20025;-72
2022/06/26 00:41:31;;;;;;;17.27;8.60;;;;;;;14.91;100.00;101296.94;5221638;28;20539;-72
2022/06/26 00:44:27;;;;;;;24.40;9.52;;;;;;;14.85;100.00;101295.81;5212083;28;20040;-72
2022/06/26 00:46:58;;;;;;;17.30;9.23;;;;;;;14.76;100.00;101300.47;5210170;28;20100;-75
2022/06/26 00:49:29;;;;;;;25.30;9.65;;;;;;;14.73;100.00;101308.09;5221148;28;20109;-72
2022/06/26 00:52:00;;;;;;;18.75;9.25;;;;;;;14.68;100.00;101305.94;5203645;28;20029;-72
2022/06/26 00:54:31;;;;;;;22.95;9.18;;;;;;;14.67;100.00;101306.13;5216794;28;20025;-73
2022/06/26 00:57:01;;;;;;;19.60;9.32;;;;;;;14.62;100.00;101320.16;5204101;28;20410;-73
2022/06/26 00:59:32;;;;;;;27.95;10.48;;;;;;;14.59;100.00;101306.19;5216793;28;20029;-73
2022/06/26 01:02:03;;;;;;;23.23;10.05;;;;;;;14.54;100.00;101306.72;5217498;28;20066;-72
2022/06/26 01:04:34;;;;;;;18.30;8.80;;;;;;;14.50;100.00;101302.69;5211103;28;20036;-73
2022/06/26 01:07:06;;;;;;;23.83;9.35;;;;;;;14.45;100.00;101310.47;5209190;28;20029;-74
2022/06/26 01:09:41;;;;;;;30.50;10.57;;;;;;;14.39;100.00;101308.50;5203953;28;20025;-73
2022/06/26 01:12:12;;;;;;;22.48;10.80;;;;;;;14.38;100.00;101306.81;5221548;28;20486;-72
2022/06/26 01:14:43;;;;;;;26.95;10.50;;;;;;;14.39;100.00;101308.50;5224569;28;20040;-73
2022/06/26 01:17:31;;;;;;;23.92;10.02;;;;;;;14.35;100.00;101304.47;5211206;28;20028;-72
2022/06/26 01:20:21;;;;;;;27.88;10.38;;;;;;;14.32;100.00;101311.09;5214347;28;20160;-72
2022/06/26 01:23:09;;;;;;;23.85;9.63;;;;;;;14.31;100.00;101317.50;5206612;28;20112;-75
2022/06/26 01:25:44;;;;;;;26.17;10.18;;;;;;;14.31;100.00;101316.63;5203653;28;20110;-74
2022/06/26 01:28:15;;;;;;;27.17;10.83;;;;;;;14.30;100.00;101307.69;5206883;28;20029;-73
2022/06/26 01:30:46;;;;;;;26.98;10.25;;;;;;;14.26;100.00;101295.63;5212603;28;20025;-73
2022/06/26 01:33:17;;;;;;;22.98;10.13;;;;;;;14.34;100.00;101300.94;5210875;28;20025;-73
2022/06/26 01:35:48;;;;;;;19.17;9.13;;;;;;;14.33;100.00;101298.41;5213869;28;20458;-73
2022/06/26 01:38:21;;;;;;;22.73;10.32;;;;;;;14.30;100.00;101298.78;5208413;28;20420;-72
2022/06/26 01:40:54;;;;;;;38.22;11.23;;;;;;;14.31;100.00;101305.84;5220812;28;20075;-73
2022/06/26 01:43:29;;;;;;;25.67;10.02;;;;;;;14.34;100.00;101313.59;5208428;28;20025;-73
2022/06/26 01:46:01;;;;;;;24.50;10.48;;;;;;;14.27;100.00;101307.25;5222577;28;20057;-72
2022/06/26 01:48:34;;;;;;;32.92;11.05;;;;;;;14.19;100.00;101305.44;5218943;28;20029;-73
2022/06/26 01:51:06;;;;;;;26.05;9.85;;;;;;;14.14;100.00;101305.97;5207817;28;20497;-74
2022/06/26 01:53:36;;;;;;;32.97;10.88;;;;;;;14.05;100.00;101304.31;5207306;28;20360;-72
2022/06/26 01:56:07;;;;;;;27.50;10.63;;;;;;;14.01;100.00;101297.63;5220953;28;20071;-73
2022/06/26 01:58:38;;;;;;;26.52;11.27;;;;;;;13.97;100.00;101296.28;5207664;28;20382;-72
2022/06/26 02:01:09;;;;;;;31.38;12.50;;;;;;;13.86;100.00;101289.44;5213102;28;20028;-71
2022/06/26 02:03:40;;;;;;;31.23;12.05;;;;;;;13.86;100.00;101294.00;5215862;28;20014;-72
2022/06/26 02:06:10;;;;;;;32.78;11.55;;;;;;;13.83;100.00;101295.19;5220224;28;20033;-72
2022/06/26 02:08:41;;;;;;;33.65;12.80;;;;;;;13.83;100.00;101300.56;5207365;28;20017;-72
2022/06/26 02:14:09;;;;;;;38.35;13.38;;;;;;;13.73;100.00;101314.28;5228322;28;20028;-72
2022/06/26 02:16:41;;;;;;;46.88;14.57;;;;;;;13.68;100.00;101313.97;5227800;28;20032;-73
2022/06/26 02:19:11;;;;;;;50.38;14.20;;;;;;;13.63;100.00;101312.81;5209263;28;20025;-73
2022/06/26 02:21:42;;;;;;;46.03;13.77;;;;;;;13.59;100.00;101317.69;5216787;28;20489;-72
2022/06/26 02:24:13;;;;;;;44.22;14.13;;;;;;;13.58;100.00;101325.97;5218403;28;20032;-72
2022/06/26 02:26:43;;;;;;;49.08;15.95;;;;;;;13.52;100.00;101329.38;5223749;28;20037;-72
2022/06/26 02:29:13;;;;;;;55.22;15.93;;;;;;;13.51;100.00;101323.13;5214198;28;20446;-72
2022/06/26 02:31:44;;;;;;;49.90;15.63;;;;;;;13.50;100.00;101321.44;5211471;28;20028;-72
2022/06/26 02:34:14;;;;;;;49.70;15.38;;;;;;;13.50;100.00;101313.34;5215564;28;20570;-72
2022/06/26 02:36:45;;;;;;;41.58;13.98;;;;;;;13.51;100.00;101315.06;5226001;28;20025;-72
2022/06/26 02:39:15;;;;;;;42.25;14.13;;;;;;;13.47;100.00;101309.16;5214372;28;20096;-72
2022/06/26 02:41:46;;;;;;;47.42;14.77;;;;;;;13.44;100.00;101300.56;5227187;28;20098;-74
2022/06/26 02:44:16;;;;;;;48.47;15.18;;;;;;;13.41;100.00;101301.78;5225996;28;20021;-73
2022/06/26 02:46:47;;;;;;;48.83;15.70;;;;;;;13.40;100.00;101318.97;5215447;28;20108;-72
2022/06/26 02:49:18;;;;;;;42.33;14.75;;;;;;;13.34;100.00;101316.09;5224706;28;20032;-72
2022/06/26 02:51:48;;;;;;;43.90;15.40;;;;;;;13.32;100.00;101313.59;5215762;28;20032;-73
2022/06/26 02:54:18;;;;;;;47.70;16.13;;;;;;;13.28;100.00;101317.63;5223488;28;20376;-73
2022/06/26 02:56:49;;;;;;;46.75;14.88;;;;;;;13.25;100.00;101323.38;5206564;28;20026;-72
2022/06/26 02:59:20;;;;;;;46.15;16.33;;;;;;;13.26;100.00;101313.44;5206974;28;20604;-72
2022/06/26 03:01:50;;;;;;;38.45;15.02;;;;;;;13.24;100.00;101327.06;5206550;28;20044;-73
2022/06/26 03:04:21;;;;;;;45.75;15.27;;;;;;;13.18;100.00;101333.97;5225111;28;20104;-73
2022/06/26 03:06:52;;;;;;;51.45;15.68;;;;;;;13.14;100.00;101338.00;5213331;28;20442;-73
2022/06/26 03:09:22;;;;;;;51.92;15.02;;;;;;;13.13;100.00;101341.72;5213748;28;20029;-72
2022/06/26 03:11:53;;;;;;;50.97;15.77;;;;;;;13.14;100.00;101335.31;5213534;28;20112;-73
2022/06/26 03:14:24;;;;;;;46.90;15.38;;;;;;;13.09;100.00;101334.97;5218255;28;20498;-73
2022/06/26 03:16:54;;;;;;;52.45;15.85;;;;;;;13.12;100.00;101334.66;5207297;28;20108;-72
2022/06/26 03:19:25;;;;;;;45.72;15.77;;;;;;;13.11;100.00;101330.28;5226774;28;20013;-73
2022/06/26 03:21:56;;;;;;;49.33;14.00;;;;;;;13.10;100.00;101320.53;5211482;28;20018;-73
2022/06/26 03:24:26;;;;;;;55.53;17.05;;;;;;;13.06;100.00;101321.88;5217235;28;20256;-72
2022/06/26 03:26:57;;;;;;;45.50;14.80;;;;;;;13.03;100.00;101326.75;5213347;28;20036;-75
2022/06/26 03:29:28;;;;;;;45.80;14.55;;;;;;;12.99;100.00;101331.63;5223437;28;20103;-73
2022/06/26 03:31:58;;;;;;;51.10;15.13;;;;;;;12.97;100.00;101336.34;5212923;28;20113;-73
2022/06/26 03:34:29;;;;;;;48.85;14.40;;;;;;;12.96;100.00;101335.53;5226460;28;20074;-74
2022/06/26 03:36:59;;;;;;;52.55;16.30;;;;;;;13.01;100.00;101345.78;5218949;28;20033;-74
2022/06/26 03:39:30;;;;;;;45.63;14.23;;;;;;;13.04;100.00;101347.28;5207423;28;20486;-73
2022/06/26 03:42:01;;;;;;;52.20;15.55;;;;;;;12.99;100.00;101353.19;5216933;28;20127;-73
2022/06/26 03:44:31;;;;;;;43.78;14.90;;;;;;;12.99;100.00;101355.88;5208172;28;20030;-73
2022/06/26 03:47:03;;;;;;;53.38;15.07;;;;;;;13.02;100.00;101354.72;5224160;28;20028;-73
2022/06/26 03:49:34;;;;;;;51.25;16.00;;;;;;;13.05;100.00;101357.91;5207919;28;20052;-74
2022/06/26 03:52:05;;;;;;;43.92;14.20;;;;;;;13.08;100.00;101352.16;5205393;28;20037;-73
2022/06/26 03:54:35;;;;;;;45.42;14.88;;;;;;;13.11;100.00;101351.84;5218119;28;20041;-73
2022/06/26 03:57:06;;;;;;;43.75;14.27;;;;;;;13.10;100.00;101357.38;5212331;28;20105;-74
2022/06/26 03:59:37;;;;;;;39.58;12.23;;;;;;;13.11;100.00;101354.53;5211556;28;20393;-73
2022/06/26 04:02:08;;;;;;;44.17;14.43;;;;;;;13.13;100.00;101363.25;5211643;28;20298;-73
2022/06/26 04:04:39;;;;;;;39.78;14.77;;;;;;;13.13;100.00;101357.88;5212004;28;20035;-73
2022/06/26 04:07:12;;;;;;;45.33;12.35;;;;;;;13.15;100.00;101363.09;5210330;28;20127;-73
2022/06/26 04:09:42;;;;;;;38.38;12.88;;;;;;;13.12;100.00;101361.59;5215255;28;21101;-73
2022/06/26 04:12:13;;;;;;;36.63;12.23;;;;;;;13.11;100.00;101356.38;5212015;28;20040;-73
2022/06/26 04:14:44;;;;;;;31.70;11.75;;;;;;;13.11;100.00;101364.47;5214375;28;20029;-72
2022/06/26 04:17:14;;;;;;;37.80;12.55;;;;;;;13.09;100.00;101366.47;5216951;28;20033;-74
2022/06/26 04:19:45;;;;;;;35.75;11.90;;;;;;;13.12;100.00;101371.53;5211844;28;20366;-74
2022/06/26 04:22:16;;;;;;;27.13;11.15;;;;;;;13.10;100.00;101378.91;5208193;28;20014;-73
2022/06/26 04:24:46;;;;;;;36.38;11.32;;;;;;;13.07;100.00;101379.28;5217843;28;20025;-75
2022/06/26 04:27:17;;;;;;;27.30;11.23;;;;;;;13.04;100.00;101380.44;5204935;28;20034;-75
2022/06/26 04:29:47;;;;;;;24.15;10.95;;;;;;;13.07;100.00;101381.97;5205869;28;20040;-73
2022/06/26 04:32:18;;;;;;;35.58;11.52;;;;;;;13.09;100.00;101390.72;5204610;28;20036;-74
2022/06/26 04:34:48;;;;;;;31.60;11.48;;;;;;;13.11;100.00;101389.53;5218107;28;20486;-73
2022/06/26 04:37:19;;;;;;;31.20;11.23;;;;;;;13.16;100.00;101397.13;5214635;28;20032;-74
2022/06/26 04:39:49;;;;;;;30.13;10.70;;;;;;;13.19;100.00;101394.06;5221623;28;20021;-73
2022/06/26 04:42:20;;;;;;;25.52;10.77;;;;;;;13.22;100.00;101396.47;5215055;28;20017;-74
2022/06/26 04:44:50;;;;;;;31.13;10.07;;;;;;;13.28;100.00;101387.69;5211671;28;20028;-73
2022/06/26 04:47:21;;;;;;;22.25;10.43;;;;;;;13.34;100.00;101387.00;5225001;28;20073;-73
2022/06/26 04:49:51;;;;;;;28.45;11.38;;;;;;;13.43;100.00;101393.22;5218932;28;20115;-74
2022/06/26 04:52:22;;;;;;;23.35;10.02;;;;;;;13.60;100.00;101402.09;5204703;28;20036;-73
2022/06/26 04:54:53;;;;;;;23.17;10.23;;;;;;;13.67;100.00;101408.50;5203705;28;20033;-73
2022/06/26 04:57:25;;;;;;;30.92;9.70;;;;;;;13.92;100.00;101396.63;5204312;28;20509;-73
2022/06/26 04:59:55;;;;;;;20.75;9.20;;;;;;;14.06;100.00;101405.00;5204559;28;20507;-73
2022/06/26 05:02:26;;;;;;;17.40;8.57;;;;;;;14.17;100.00;101408.16;5217758;28;20021;-72
2022/06/26 05:04:56;;;;;;;21.38;8.93;;;;;;;14.30;100.00;101407.56;5214137;28;20017;-72
2022/06/26 05:07:27;;;;;;;20.88;9.18;;;;;;;14.48;100.00;101416.28;5206707;28;20021;-72
2022/06/26 05:09:58;;;;;;;18.77;8.80;;;;;;;14.51;100.00;101417.78;5204135;28;20017;-72
2022/06/26 05:12:28;;;;;;;22.70;8.00;;;;;;;14.61;100.00;101426.50;5216860;28;20026;-73
2022/06/26 05:14:59;;;;;;;13.85;7.25;;;;;;;14.72;100.00;101412.56;5217194;28;20036;-72
2022/06/26 05:17:29;;;;;;;27.30;9.35;;;;;;;14.90;100.00;101420.34;5211441;28;20536;-72
2022/06/26 05:20:00;;;;;;;18.25;8.27;;;;;;;15.12;100.00;101426.78;5216806;28;20020;-72
2022/06/26 05:22:30;;;;;;;20.30;8.80;;;;;;;15.17;100.00;101435.19;5206895;28;20390;-72
2022/06/26 05:25:01;;;;;;;17.70;7.30;;;;;;;15.26;100.00;101447.63;5212153;28;20033;-72
2022/06/26 05:27:32;;;;;;;14.63;7.00;;;;;;;15.31;100.00;101449.75;5220415;28;20033;-72
2022/06/26 05:30:04;;;;;;;12.90;6.70;;;;;;;15.18;100.00;101434.16;5215603;28;20147;-71
2022/06/26 05:32:35;;;;;;;13.98;6.65;;;;;;;15.29;100.00;101436.41;5201130;28;20499;-72
2022/06/26 05:35:06;;;;;;;14.10;6.28;;;;;;;15.46;100.00;101428.16;5219371;28;20032;-70
2022/06/26 05:37:37;;;;;;;17.45;6.78;;;;;;;15.53;100.00;101431.81;5221993;28;20437;-69
2022/06/26 05:40:08;;;;;;;13.82;6.40;;;;;;;15.52;100.00;101433.69;5221371;28;20017;-69
2022/06/26 05:42:38;;;;;;;16.58;7.03;;;;;;;15.56;100.00;101439.53;5221365;28;20040;-72
2022/06/26 05:45:09;;;;;;;18.40;6.88;;;;;;;15.68;100.00;101435.41;5221168;28;20017;-71
2022/06/26 05:47:40;;;;;;;11.70;5.40;;;;;;;15.62;100.00;101429.88;5221560;28;20395;-71
2022/06/26 05:50:10;;;;;;;13.18;6.18;;;;;;;15.70;100.00;101433.34;5221645;28;20032;-71
2022/06/26 05:52:41;;;;;;;11.38;6.18;;;;;;;15.75;100.00;101435.50;5217780;28;20025;-71
2022/06/26 05:55:12;;;;;;;16.23;5.63;;;;;;;15.83;100.00;101439.97;5210682;28;20017;-71
2022/06/26 05:57:42;;;;;;;10.60;6.07;;;;;;;15.85;100.00;101448.75;5215404;28;20033;-71
2022/06/26 06:00:14;;;;;;;10.05;6.60;;;;;;;15.95;100.00;101446.59;5221418;28;20017;-71
2022/06/26 06:02:46;;;;;;;12.95;6.18;;;;;;;16.11;100.00;101448.25;5221576;28;20728;-71
2022/06/26 06:05:17;;;;;;;13.32;5.85;;;;;;;16.22;100.00;101459.47;5207507;28;20021;-71
2022/06/26 06:07:48;;;;;;;12.73;5.93;;;;;;;16.34;100.00;101470.66;5208090;28;20044;-71
2022/06/26 06:10:19;;;;;;;10.60;5.30;;;;;;;16.45;100.00;101472.03;5221336;28;20407;-71
2022/06/26 06:12:51;;;;;;;13.13;5.20;;;;;;;16.63;100.00;101482.47;5221354;28;20017;-71
2022/06/26 06:15:22;;;;;;;9.13;4.95;;;;;;;16.63;100.00;101485.19;5220662;28;20290;-71
2022/06/26 06:17:53;;;;;;;13.35;6.22;;;;;;;16.61;100.00;101487.22;5211230;28;20029;-71
2022/06/26 06:20:24;;;;;;;13.93;5.20;;;;;;;16.28;100.00;101493.91;5209703;28;20052;-70
2022/06/26 06:23:02;;;;;;;15.95;5.45;;;;;;;16.03;100.00;101506.88;5205473;28;20018;-71
2022/06/26 06:25:33;;;;;;;10.38;4.72;;;;;;;16.01;100.00;101505.38;5223927;28;20035;-71
2022/06/26 06:28:04;;;;;;;11.18;5.35;;;;;;;16.04;100.00;101505.84;5221135;28;20445;-71
2022/06/26 06:30:34;;;;;;;11.20;5.68;;;;;;;16.04;100.00;101519.38;5211558;28;20102;-71
2022/06/26 06:33:05;;;;;;;17.73;5.93;;;;;;;16.11;100.00;101519.47;5224582;28;20025;-71
2022/06/26 06:35:36;;;;;;;19.98;6.55;;;;;;;16.10;100.00;101522.38;5224217;28;20029;-71
2022/06/26 06:38:07;;;;;;;14.10;5.90;;;;;;;16.15;100.00;101512.66;5221837;28;20026;-71
2022/06/26 06:40:38;;;;;;;19.40;6.47;;;;;;;16.30;100.00;101509.97;5203019;28;20029;-71
2022/06/26 06:43:10;;;;;;;14.15;5.93;;;;;;;16.34;100.00;101513.97;5216648;28;20055;-71
2022/06/26 06:45:40;;;;;;;15.65;6.53;;;;;;;16.27;100.00;101519.31;5215784;28;20132;-71
2022/06/26 06:48:11;;;;;;;15.98;5.80;;;;;;;16.40;100.00;101528.63;5222388;28;20025;-71
2022/06/26 06:50:42;;;;;;;11.50;5.53;;;;;;;16.51;100.00;101520.00;5224770;28;20482;-71
2022/06/26 06:53:12;;;;;;;14.15;5.55;;;;;;;16.44;100.00;101516.41;5224238;28;20029;-71
2022/06/26 06:55:43;;;;;;;10.15;5.57;;;;;;;16.57;100.00;101528.25;5209043;28;20029;-71
2022/06/26 06:58:13;;;;;;;18.30;5.82;;;;;;;16.40;100.00;101517.78;5217323;28;20025;-71
2022/06/26 07:00:44;;;;;;;12.00;5.22;;;;;;;16.39;100.00;101526.94;5224716;28;20036;-71
2022/06/26 07:03:14;;;;;;;14.52;6.03;;;;;;;16.25;100.00;101531.34;5215374;28;20056;-72
2022/06/26 07:05:45;;;;;;;16.10;5.57;;;;;;;16.26;100.00;101535.72;5219659;28;20039;-71
2022/06/26 07:08:15;;;;;;;16.00;6.05;;;;;;;16.23;100.00;101534.25;5223701;28;20024;-71
2022/06/26 07:10:46;;;;;;;13.80;5.60;;;;;;;16.15;100.00;101547.84;5224575;28;20024;-71
2022/06/26 07:13:16;;;;;;;13.18;5.72;;;;;;;16.17;100.00;101545.81;5223904;28;20086;-70
2022/06/26 07:15:47;;;;;;;17.15;5.35;;;;;;;16.21;100.00;101557.09;5204235;28;20071;-70
2022/06/26 07:18:17;;;;;;;11.60;5.13;;;;;;;16.24;100.00;101552.16;5216099;28;20031;-71
2022/06/26 07:20:48;;;;;;;15.95;5.63;;;;;;;16.21;100.00;101560.63;5221402;28;20216;-70
2022/06/26 07:23:20;;;;;;;15.77;5.47;;;;;;;16.39;100.00;101564.88;5217700;28;20024;-71
2022/06/26 07:25:50;;;;;;;17.40;6.03;;;;;;;16.61;100.00;101563.91;5214833;28;20040;-70
2022/06/26 07:28:21;;;;;;;16.83;5.47;;;;;;;16.71;100.00;101567.19;5216390;28;20478;-70
2022/06/26 07:30:52;;;;;;;11.95;6.13;;;;;;;16.86;100.00;101569.88;5224164;28;20021;-70
2022/06/26 07:36:13;;;;;;;13.55;5.53;;;;;;;17.06;100.00;101546.53;5222880;28;20028;-70
2022/06/26 07:38:44;;;;;;;10.38;5.45;;;;;;;17.11;100.00;101547.84;5223745;28;20023;-70
2022/06/26 07:41:15;;;;;;;12.52;5.18;;;;;;;17.14;100.00;101561.03;5223120;28;20399;-70
2022/06/26 07:43:45;;;;;;;10.70;5.50;;;;;;;17.10;100.00;101557.84;5223150;28;20040;-71
2022/06/26 07:46:16;;;;;;;14.48;5.78;;;;;;;17.03;100.00;101568.63;5221143;28;20022;-70
2022/06/26 07:48:46;;;;;;;22.30;6.45;;;;;;;17.01;100.00;101554.41;5233209;28;20022;-70
2022/06/26 07:51:17;;;;;;;14.32;5.60;;;;;;;17.13;100.00;101571.03;5218189;28;20675;-71
2022/06/26 07:53:47;;;;;;;12.27;5.40;;;;;;;17.15;100.00;101571.69;5214924;28;20025;-70
2022/06/26 07:56:18;;;;;;;17.15;5.88;;;;;;;17.05;100.00;101565.72;5221401;28;20021;-70
2022/06/26 07:58:49;;;;;;;16.65;6.43;;;;;;;17.10;100.00;101566.00;5216999;28;20493;-70
2022/06/26 08:01:20;;;;;;;14.20;5.63;;;;;;;17.11;100.00;101558.69;5223065;28;20474;-71
2022/06/26 08:03:51;;;;;;;16.92;6.63;;;;;;;17.33;100.00;101558.53;5223032;28;20440;-70
2022/06/26 08:06:22;;;;;;;16.35;6.00;;;;;;;17.64;100.00;101548.38;5212514;28;20033;-70
2022/06/26 08:08:55;;;;;;;23.33;6.57;;;;;;;17.97;100.00;101556.78;5219001;28;20497;-70
2022/06/26 08:11:26;;;;;;;16.35;5.93;;;;;;;18.28;100.00;101556.41;5223175;28;20029;-71
2022/06/26 08:13:56;;;;;;;18.52;6.28;;;;;;;18.07;100.00;101554.56;5209575;28;20025;-71
2022/06/26 08:16:27;;;;;;;16.52;5.80;;;;;;;17.84;100.00;101561.09;5222763;28;20031;-70
2022/06/26 08:18:57;;;;;;;13.10;5.53;;;;;;;17.72;100.00;101570.78;5216901;28;20383;-70
2022/06/26 08:24:17;;;;;;;18.83;6.55;;;;;;;17.72;100.00;101568.06;5212321;28;20025;-70
2022/06/26 08:26:47;;;;;;;13.25;5.47;;;;;;;17.79;100.00;101557.28;5227311;28;20400;-71
2022/06/26 08:29:18;;;;;;;14.82;6.10;;;;;;;17.82;100.00;101560.47;5209812;28;20460;-71
2022/06/26 08:31:48;;;;;;;13.05;6.25;;;;;;;17.96;100.00;101568.69;5206984;28;20029;-71
2022/06/26 08:34:20;;;;;;;12.00;5.50;;;;;;;18.08;100.00;101575.28;5222556;28;20474;-71
2022/06/26 08:36:52;;;;;;;11.68;5.35;;;;;;;18.05;100.00;101576.50;5216906;28;20036;-71
2022/06/26 08:39:24;;;;;;;13.00;4.78;;;;;;;18.04;100.00;101572.09;5216159;28;20348;-71
2022/06/26 08:41:56;;;;;;;11.15;4.65;;;;;;;17.88;100.00;101561.56;5222491;28;20027;-71
2022/06/26 08:44:28;;;;;;;11.95;5.68;;;;;;;17.84;100.00;101560.25;5222293;28;20033;-71
2022/06/26 08:46:59;;;;;;;11.20;5.30;;;;;;;17.89;100.00;101568.66;5229333;28;20382;-71
2022/06/26 08:49:29;;;;;;;15.18;5.80;;;;;;;17.87;100.00;101576.13;5226357;28;20433;-71
2022/06/26 08:52:01;;;;;;;12.50;5.30;;;;;;;17.97;100.00;101576.66;5223447;28;20032;-70
2022/06/26 08:54:32;;;;;;;14.55;5.45;;;;;;;17.92;100.00;101578.25;5221281;28;20037;-71
2022/06/26 08:57:04;;;;;;;12.05;5.90;;;;;;;18.14;100.00;101576.34;5210009;28;20021;-70
2022/06/26 08:59:34;;;;;;;12.00;5.10;;;;;;;18.18;100.00;101575.75;5221583;28;20029;-70
2022/06/26 09:02:05;;;;;;;11.63;5.10;;;;;;;18.35;100.00;101568.97;5222262;28;20027;-70
2022/06/26 09:04:36;;;;;;;11.98;4.60;;;;;;;18.52;100.00;101576.78;5201408;28;20087;-71
2022/06/26 09:07:08;;;;;;;11.25;4.80;;;;;;;18.50;100.00;101576.16;5216349;28;20080;-70
2022/06/26 09:09:39;;;;;;;12.20;4.30;;;;;;;18.83;100.00;101585.34;5222648;28;20465;-70
2022/06/26 09:12:10;;;;;;;14.40;4.88;;;;;;;19.23;100.00;101584.63;5221965;28;20031;-71
2022/06/26 09:14:41;;;;;;;13.90;5.20;;;;;;;19.57;100.00;101580.91;5211624;28;20394;-70
2022/06/26 09:17:12;;;;;;;9.07;4.50;;;;;;;19.86;100.00;101577.81;5214316;28;20399;-71
2022/06/26 09:19:43;;;;;;;10.50;4.68;;;;;;;19.71;100.00;101585.34;5214109;28;20456;-70
2022/06/26 09:22:17;;;;;;;14.85;5.30;;;;;;;19.98;100.00;101590.78;5203750;28;20025;-71
2022/06/26 09:25:03;;;;;;;16.60;4.97;;;;;;;19.62;100.00;101586.59;5215395;28;20052;-70
2022/06/26 09:27:39;;;;;;;12.48;4.72;;;;;;;19.66;100.00;101587.88;5222044;28;20025;-71
2022/06/26 09:30:10;;;;;;;12.73;4.80;;;;;;;19.80;100.00;101586.00;5219723;28;20025;-71
2022/06/26 09:32:40;;;;;;;14.23;5.20;;;;;;;20.11;100.00;101593.50;5209643;28;20034;-71
2022/06/26 09:35:21;;;;;;;9.68;4.32;;;;;;;20.01;100.00;101593.94;5205740;28;20413;-70
2022/06/26 09:37:51;;;;;;;6.50;3.50;;;;;;;20.30;100.00;101594.53;5220858;28;20441;-71
2022/06/26 09:40:23;;;;;;;9.70;3.95;;;;;;;20.46;100.00;101595.97;5209969;28;20029;-70
2022/06/26 09:42:54;;;;;;;11.30;4.32;;;;;;;20.42;100.00;101581.94;5221707;28;20020;-70
2022/06/26 09:45:24;;;;;;;7.65;4.00;;;;;;;20.34;100.00;101590.34;5221715;28;20615;-71
2022/06/26 09:47:55;;;;;;;9.30;3.60;;;;;;;20.76;100.00;101588.97;5220575;28;20112;-70
2022/06/26 09:50:26;;;;;;;10.60;4.00;;;;;;;20.93;100.00;101595.66;5209971;28;20077;-71
2022/06/26 09:52:57;;;;;;;10.98;3.65;;;;;;;21.04;100.00;101590.56;5213728;28;20527;-71
2022/06/26 09:55:29;;;;;;;9.73;3.72;;;;;;;21.14;100.00;101596.38;5213951;28;20029;-70
2022/06/26 09:58:00;;;;;;;8.98;3.70;;;;;;;21.10;100.00;101595.97;5209023;28;20030;-70
2022/06/26 10:00:35;;;;;;;11.82;3.85;;;;;;;21.15;100.00;101598.88;5219669;28;20138;-71
2022/06/26 10:06:28;;;;;;;14.25;3.97;;;;;;;20.95;100.00;101592.69;5225649;28;20035;-71
2022/06/26 10:08:50;;;;;;;11.38;3.58;;;;;;;20.40;100.00;101598.50;5209613;28;20185;-71
2022/06/26 10:11:23;;;;;;;10.68;4.22;;;;;;;20.65;100.00;101589.66;5214804;28;20029;-71
2022/06/26 10:14:00;;;;;;;9.23;3.65;;;;;;;20.61;100.00;101588.41;5220946;28;20025;-70
2022/06/26 10:16:30;;;;;;;13.27;3.97;;;;;;;20.96;100.00;101591.63;5217249;28;20029;-70
2022/06/26 10:19:08;;;;;;;7.30;3.40;;;;;;;20.82;100.00;101592.72;5225350;28;20036;-70
2022/06/26 10:21:39;;;;;;;11.77;3.30;;;;;;;20.57;100.00;101595.34;5219127;28;20087;-70
2022/06/26 10:24:10;;;;;;;7.68;3.72;;;;;;;20.85;100.00;101592.31;5224782;28;20040;-71
2022/06/26 10:26:53;;;;;;;9.25;3.38;;;;;;;20.65;100.00;101598.66;5225638;28;20051;-71
2022/06/26 10:29:39;;;;;;;6.88;3.70;;;;;;;20.69;100.00;101602.66;5211031;28;20029;-71
2022/06/26 10:32:10;;;;;;;14.40;3.63;;;;;;;20.81;100.00;101596.53;5211824;28;20036;-70
2022/06/26 10:34:40;;;;;;;7.88;3.63;;;;;;;21.06;100.00;101597.47;5212030;28;20480;-71
2022/06/26 10:37:13;;;;;;;12.32;2.80;;;;;;;21.01;100.00;101597.28;5225210;28;20397;-70
2022/06/26 10:39:49;;;;;;;8.85;3.38;;;;;;;21.17;100.00;101593.19;5221971;28;20025;-70
2022/06/26 10:45:14;;;;;;;9.73;3.15;;;;;;;21.21;100.00;101586.25;5212773;28;20033;-71
2022/06/26 10:47:49;;;;;;;11.93;3.63;;;;;;;21.08;100.00;101591.78;5222090;28;20029;-71
2022/06/26 10:50:38;;;;;;;;;;;;;;;21.47;100.00;101585.28;5225904;28;20031;-71
2022/06/26 10:53:46;;;;;;;12.80;3.40;;;;;;;21.63;100.00;101584.72;5224264;28;19989;-71
2022/06/26 10:56:16;;;;;;;9.38;3.05;;;;;;;21.40;100.00;101584.50;5218988;28;20036;-71
2022/06/26 10:58:48;;;;;;;10.13;2.88;;;;;;;21.43;100.00;101576.69;5217841;28;20108;-71
2022/06/26 11:01:20;;;;;;;7.68;3.20;;;;;;;21.27;100.00;101581.81;5217209;28;20029;-71
2022/06/26 11:03:50;;;;;;;14.00;3.42;;;;;;;21.51;100.00;101574.75;5218924;28;20027;-70
2022/06/26 11:06:26;;;;;;;5.22;2.47;;;;;;;21.60;100.00;101574.28;5224977;28;20374;-71
2022/06/26 11:08:57;;;;;;;13.90;2.88;;;;;;;21.63;100.00;101567.50;5207709;28;20025;-71
2022/06/26 11:11:31;;;;;;;11.20;2.60;;;;;;;21.70;100.00;101569.16;5214809;28;20074;-71
2022/06/26 11:14:06;;;;;;;8.63;2.80;;;;;;;21.95;100.00;101571.03;5205076;28;20017;-70
2022/06/26 11:16:39;;;;;;;8.13;2.70;;;;;;;22.25;100.00;101571.19;5216980;28;20036;-71
2022/06/26 11:19:22;;;;;;;8.02;2.97;;;;;;;21.85;100.00;101577.00;5224185;28;20077;-71
2022/06/26 11:22:05;;;;;;;6.20;2.30;;;;;;;21.48;100.00;101564.28;5214105;28;20044;-71
2022/06/26 11:24:49;;;;;;;9.35;2.55;;;;;;;21.87;100.00;101565.84;5214963;28;20035;-71
2022/06/26 11:27:22;;;;;;;8.98;2.60;;;;;;;21.52;100.00;101571.81;5224633;28;20056;-71
2022/06/26 11:29:52;;;;;;;8.95;2.88;;;;;;;21.56;100.00;101569.47;5218106;28;20025;-70
2022/06/26 11:32:24;;;;;;;13.88;2.97;;;;;;;21.63;100.00;101570.25;5212386;28;20087;-70
2022/06/26 11:34:56;;;;;;;6.18;2.33;;;;;;;21.96;100.00;101567.25;5223750;28;20025;-71
2022/06/26 11:37:45;;;;;;;6.93;2.47;;;;;;;22.23;100.00;101578.78;5224304;28;20107;-71
2022/06/26 11:40:18;;;;;;;6.72;2.58;;;;;;;22.20;100.00;101569.16;5210547;28;20036;-71
2022/06/26 11:42:55;;;;;;;6.32;2.10;;;;;;;22.07;100.00;101560.19;5224075;28;20467;-71